Time;durP1;ratioP1;P1;durP2;ratioP2;P2;SDS_P1;SDS_P2;PMS_P1;PMS_P2;Temp;Humidity;BMP_temperature;BMP_pressure;BME280_temperature;BME280_humidity;BME280_pressure;Samples;Min_cycle;Max_cycle;Signal;HPM_P1;HPM_P2
2023/03/27 00:02:07;;;;;;;1.13;0.40;;;;;;;;;;5030859;28;20445;-68
2023/03/27 00:04:34;;;;;;;1.27;0.40;;;;;;;;;;5049468;28;20453;-68
2023/03/27 00:07:00;;;;;;;1.03;0.70;;;;;;;;;;5048639;28;20472;-68
2023/03/27 00:09:27;;;;;;;2.00;0.97;;;;;;;;;;5046522;28;20867;-68
2023/03/27 00:11:55;;;;;;;0.97;0.60;;;;;;;;;;5012452;28;20426;-67
2023/03/27 00:14:22;;;;;;;1.40;0.70;;;;;;;;;;5025253;28;21047;-67
2023/03/27 00:16:49;;;;;;;2.07;0.70;;;;;;;;;;5051096;28;20455;-67
2023/03/27 00:19:17;;;;;;;1.90;0.87;;;;;;;;;;5030818;28;20542;-67
2023/03/27 00:21:44;;;;;;;0.90;0.80;;;;;;;;;;5030184;28;20448;-67
2023/03/27 00:24:11;;;;;;;1.53;0.93;;;;;;;;;;5044621;28;20455;-67
2023/03/27 00:26:39;;;;;;;1.93;1.00;;;;;;;;;;5047620;28;21282;-67
2023/03/27 00:29:06;;;;;;;1.20;0.70;;;;;;;;;;5048072;28;20580;-67
2023/03/27 00:31:33;;;;;;;1.63;0.90;;;;;;;;;;5048791;28;20543;-66
2023/03/27 00:34:01;;;;;;;2.00;0.90;;;;;;;;;;5031489;28;20436;-67
2023/03/27 00:36:27;;;;;;;1.83;0.80;;;;;;;;;;5048786;28;20940;-67
2023/03/27 00:38:54;;;;;;;1.43;0.77;;;;;;;;;;5030787;28;20457;-66
2023/03/27 00:41:21;;;;;;;2.13;0.83;;;;;;;;;;5046374;28;20447;-66
2023/03/27 00:43:49;;;;;;;3.07;1.10;;;;;;;;;;5015922;28;21007;-66
2023/03/27 00:46:20;;;;;;;1.50;0.70;;;;;;;;;;5048309;28;20980;-66
2023/03/27 00:48:47;;;;;;;1.83;0.90;;;;;;;;;;5031181;28;20524;-66
2023/03/27 00:51:14;;;;;;;1.43;0.60;;;;;;;;;;5031320;28;20434;-68
2023/03/27 00:53:41;;;;;;;0.73;0.60;;;;;;;;;;5033739;28;20658;-66
2023/03/27 00:56:08;;;;;;;2.17;1.00;;;;;;;;;;5032523;28;20460;-66
2023/03/27 00:58:55;;;;;;;2.93;0.90;;;;;;;;;;5023126;28;20956;-67
2023/03/27 01:01:22;;;;;;;1.70;0.57;;;;;;;;;;5048334;28;21021;-67
2023/03/27 01:03:50;;;;;;;3.33;0.80;;;;;;;;;;5030004;28;20520;-67
2023/03/27 01:06:17;;;;;;;1.33;0.60;;;;;;;;;;5013934;28;20478;-67
2023/03/27 01:08:45;;;;;;;1.50;0.80;;;;;;;;;;5029395;28;20972;-66
2023/03/27 01:11:27;;;;;;;2.37;0.80;;;;;;;;;;5033820;28;20451;-67
2023/03/27 01:13:57;;;;;;;1.33;0.53;;;;;;;;;;5027539;28;20457;-66
2023/03/27 01:16:42;;;;;;;1.30;0.60;;;;;;;;;;5029919;28;20461;-66
2023/03/27 01:19:27;;;;;;;1.33;0.60;;;;;;;;;;5030790;28;20453;-68
2023/03/27 01:21:56;;;;;;;3.10;0.90;;;;;;;;;;5047282;28;20452;-68
2023/03/27 01:24:41;;;;;;;1.47;0.70;;;;;;;;;;5029885;28;20552;-68
2023/03/27 01:27:15;;;;;;;1.33;0.80;;;;;;;;;;5013581;28;20495;-68
2023/03/27 01:29:53;;;;;;;1.97;0.73;;;;;;;;;;5047016;28;20479;-68
2023/03/27 01:32:21;;;;;;;1.70;0.73;;;;;;;;;;4998165;28;20808;-69
2023/03/27 01:34:52;;;;;;;2.30;1.10;;;;;;;;;;5046272;28;20448;-68
2023/03/27 01:37:30;;;;;;;1.63;0.67;;;;;;;;;;5046065;28;20453;-68
2023/03/27 01:40:04;;;;;;;3.00;0.90;;;;;;;;;;5047424;28;20492;-67
2023/03/27 02:17:32;;;;;;;2.43;0.80;;;;;;;;;;5028893;28;20485;-68
2023/03/27 02:20:08;;;;;;;2.33;1.03;;;;;;;;;;5013518;28;20441;-67
2023/03/27 02:22:35;;;;;;;3.03;1.27;;;;;;;;;;5028175;28;20559;-68
2023/03/27 02:25:19;;;;;;;1.90;1.20;;;;;;;;;;5029276;28;20472;-67
2023/03/27 02:27:46;;;;;;;2.63;1.30;;;;;;;;;;5029152;28;21153;-67
2023/03/27 02:30:19;;;;;;;2.10;1.37;;;;;;;;;;5009725;28;20455;-67
2023/03/27 02:32:57;;;;;;;1.23;1.10;;;;;;;;;;5011465;28;20457;-67
2023/03/27 02:35:34;;;;;;;3.07;1.30;;;;;;;;;;5009322;28;20457;-66
2023/03/27 02:38:07;;;;;;;1.70;1.40;;;;;;;;;;5021615;28;20460;-67
2023/03/27 02:40:41;;;;;;;1.60;1.10;;;;;;;;;;5027733;28;20954;-69
2023/03/27 02:43:32;;;;;;;3.03;1.27;;;;;;;;;;5003175;28;20630;-66
2023/03/27 02:46:03;;;;;;;2.57;1.50;;;;;;;;;;5021419;28;20457;-67
2023/03/27 02:48:34;;;;;;;4.53;1.50;;;;;;;;;;5028614;28;20442;-67
2023/03/27 02:51:07;;;;;;;2.63;1.67;;;;;;;;;;5031107;28;20440;-67
2023/03/27 02:53:35;;;;;;;3.63;1.70;;;;;;;;;;5034180;28;21088;-66
2023/03/27 02:56:05;;;;;;;2.17;1.50;;;;;;;;;;5032533;28;20468;-66
2023/03/27 02:58:43;;;;;;;2.27;1.70;;;;;;;;;;5029650;28;20448;-66
2023/03/27 03:01:30;;;;;;;2.70;2.00;;;;;;;;;;5015186;28;20455;-66
2023/03/27 03:04:33;;;;;;;2.80;1.50;;;;;;;;;;5052091;28;20452;-66
2023/03/27 03:07:13;;;;;;;2.00;1.70;;;;;;;;;;5034257;28;20472;-66
2023/03/27 03:09:40;;;;;;;2.47;1.70;;;;;;;;;;5028742;28;20988;-66
2023/03/27 03:12:08;;;;;;;3.80;2.17;;;;;;;;;;5047198;28;20499;-67
2023/03/27 03:14:39;;;;;;;8.30;5.93;;;;;;;;;;5035428;28;21143;-67
2023/03/27 03:17:05;;;;;;;4.13;3.30;;;;;;;;;;5066717;28;20454;-67
2023/03/27 03:19:32;;;;;;;3.13;2.60;;;;;;;;;;5031372;28;20572;-68
2023/03/27 03:22:00;;;;;;;14.77;9.23;;;;;;;;;;5048171;28;20560;-66
2023/03/27 03:24:29;;;;;;;18.70;11.33;;;;;;;;;;5029097;28;20508;-67
2023/03/27 03:26:58;;;;;;;13.70;10.27;;;;;;;;;;5032092;28;20571;-66
2023/03/27 03:29:28;;;;;;;73.93;34.47;;;;;;;;;;5007511;28;21002;-66
2023/03/27 03:32:07;;;;;;;30.43;14.67;;;;;;;;;;5031076;28;20455;-65
2023/03/27 03:34:35;;;;;;;22.73;10.63;;;;;;;;;;5033734;28;20449;-64
2023/03/27 03:37:02;;;;;;;4.60;3.47;;;;;;;;;;5029096;28;20466;-65
2023/03/27 03:39:30;;;;;;;3.57;2.50;;;;;;;;;;5029078;28;20540;-66
2023/03/27 03:41:56;;;;;;;3.27;2.20;;;;;;;;;;5045256;28;20448;-65
2023/03/27 03:44:24;;;;;;;10.50;6.27;;;;;;;;;;5032449;28;20477;-64
2023/03/27 03:46:52;;;;;;;25.40;15.30;;;;;;;;;;5019406;28;21005;-65
2023/03/27 03:49:20;;;;;;;3.60;3.20;;;;;;;;;;5027845;28;21019;-66
2023/03/27 03:51:47;;;;;;;6.70;4.53;;;;;;;;;;5012831;28;20484;-65
2023/03/27 03:54:31;;;;;;;14.37;9.23;;;;;;;;;;5028932;28;20455;-64
2023/03/27 03:56:58;;;;;;;7.27;4.67;;;;;;;;;;5036402;28;20477;-65
2023/03/27 03:59:25;;;;;;;3.53;2.30;;;;;;;;;;5027875;28;20536;-65
2023/03/27 04:02:11;;;;;;;2.63;2.20;;;;;;;;;;5040456;28;20602;-65
2023/03/27 04:04:38;;;;;;;4.87;1.87;;;;;;;;;;5045704;28;20452;-64
2023/03/27 04:07:09;;;;;;;3.50;2.80;;;;;;;;;;5027463;28;21027;-65
2023/03/27 04:09:42;;;;;;;3.20;2.53;;;;;;;;;;5028286;28;20456;-67
2023/03/27 04:12:15;;;;;;;2.87;1.70;;;;;;;;;;5041427;28;20461;-67
2023/03/27 04:14:58;;;;;;;2.73;1.77;;;;;;;;;;5028565;28;20452;-67
2023/03/27 04:17:47;;;;;;;2.87;2.30;;;;;;;;;;5013199;28;20496;-67
2023/03/27 04:20:14;;;;;;;5.83;3.67;;;;;;;;;;5028336;28;20750;-66
2023/03/27 04:22:46;;;;;;;5.47;3.60;;;;;;;;;;5046066;28;20440;-66
2023/03/27 04:25:15;;;;;;;3.57;2.30;;;;;;;;;;5029707;28;20496;-66
2023/03/27 04:27:43;;;;;;;5.17;2.80;;;;;;;;;;5029675;28;20489;-66
2023/03/27 04:30:21;;;;;;;3.67;2.77;;;;;;;;;;5029125;28;20457;-67
2023/03/27 04:33:07;;;;;;;4.30;2.77;;;;;;;;;;5051071;28;20805;-67
2023/03/27 04:35:51;;;;;;;3.20;2.63;;;;;;;;;;5036174;28;20986;-67
2023/03/27 04:38:59;;;;;;;4.03;2.37;;;;;;;;;;5043466;28;20453;-67
2023/03/27 04:41:31;;;;;;;3.10;2.17;;;;;;;;;;5031046;28;20544;-68
2023/03/27 04:43:58;;;;;;;2.17;1.70;;;;;;;;;;5031210;28;20583;-68
2023/03/27 04:46:24;;;;;;;2.90;1.60;;;;;;;;;;5034521;28;20516;-69
2023/03/27 04:48:58;;;;;;;2.27;1.60;;;;;;;;;;5017581;28;20478;-68
2023/03/27 04:51:47;;;;;;;2.53;1.90;;;;;;;;;;5035878;28;20457;-68
2023/03/27 04:54:14;;;;;;;2.27;1.90;;;;;;;;;;5033748;28;20548;-69
2023/03/27 04:56:44;;;;;;;2.37;2.00;;;;;;;;;;5029058;28;21456;-68
2023/03/27 04:59:12;;;;;;;2.40;1.97;;;;;;;;;;5030170;28;20462;-64
2023/03/27 05:01:39;;;;;;;2.10;1.63;;;;;;;;;;5032401;28;20564;-65
2023/03/27 05:04:16;;;;;;;3.77;2.10;;;;;;;;;;5027264;28;21039;-67
2023/03/27 05:07:03;;;;;;;3.70;2.03;;;;;;;;;;5031294;28;20502;-67
2023/03/27 05:09:30;;;;;;;2.37;1.80;;;;;;;;;;5049453;28;20774;-67
2023/03/27 05:11:57;;;;;;;3.83;2.60;;;;;;;;;;5045003;28;20459;-67
2023/03/27 05:14:25;;;;;;;3.00;2.50;;;;;;;;;;5028240;28;20444;-67
2023/03/27 05:16:56;;;;;;;3.30;2.47;;;;;;;;;;5028053;28;20523;-67
2023/03/27 05:19:24;;;;;;;4.07;2.90;;;;;;;;;;5029991;28;20441;-67
2023/03/27 05:21:57;;;;;;;3.83;2.73;;;;;;;;;;5035303;28;21134;-68
2023/03/27 05:24:25;;;;;;;7.07;3.70;;;;;;;;;;5028068;28;20440;-67
2023/03/27 05:26:52;;;;;;;8.50;3.80;;;;;;;;;;5027619;28;20556;-67
2023/03/27 05:29:20;;;;;;;6.03;2.97;;;;;;;;;;5027813;28;20850;-67
2023/03/27 05:31:55;;;;;;;4.20;2.70;;;;;;;;;;5026974;28;21175;-67
2023/03/27 05:34:42;;;;;;;3.83;2.43;;;;;;;;;;5045665;28;21012;-66
2023/03/27 05:37:12;;;;;;;4.23;3.00;;;;;;;;;;5026652;28;20546;-67
2023/03/27 05:39:59;;;;;;;5.60;3.33;;;;;;;;;;5007092;28;20437;-67
2023/03/27 05:42:26;;;;;;;4.17;2.90;;;;;;;;;;5028342;28;20487;-67
2023/03/27 05:44:54;;;;;;;4.93;2.73;;;;;;;;;;5028656;28;20956;-67
2023/03/27 05:47:21;;;;;;;4.63;2.90;;;;;;;;;;5045163;28;20518;-67
2023/03/27 05:49:51;;;;;;;4.67;3.20;;;;;;;;;;5027773;28;20457;-67
2023/03/27 05:52:18;;;;;;;5.27;3.00;;;;;;;;;;5025816;28;20489;-68
2023/03/27 05:54:45;;;;;;;3.77;2.87;;;;;;;;;;5010263;28;20439;-67
2023/03/27 05:57:13;;;;;;;5.47;2.63;;;;;;;;;;5026829;28;20496;-67
2023/03/27 05:59:41;;;;;;;4.80;3.00;;;;;;;;;;5026581;28;20836;-67
2023/03/27 06:02:16;;;;;;;5.13;3.30;;;;;;;;;;5031702;28;20460;-68
2023/03/27 06:05:00;;;;;;;6.90;3.10;;;;;;;;;;5032921;28;20452;-69
2023/03/27 06:07:39;;;;;;;9.73;4.97;;;;;;;;;;5050791;28;20469;-68
2023/03/27 06:10:09;;;;;;;8.50;4.63;;;;;;;;;;5022558;28;21377;-68
2023/03/27 06:12:48;;;;;;;9.43;5.03;;;;;;;;;;5057203;28;20437;-68
2023/03/27 06:15:28;;;;;;;9.53;4.70;;;;;;;;;;5028508;28;20467;-68
2023/03/27 06:18:13;;;;;;;7.83;4.17;;;;;;;;;;5027485;28;20461;-68
2023/03/27 06:20:41;;;;;;;8.67;4.30;;;;;;;;;;5025443;28;20426;-68
2023/03/27 06:23:08;;;;;;;8.43;4.90;;;;;;;;;;5034812;28;20432;-68
2023/03/27 06:25:35;;;;;;;12.43;5.10;;;;;;;;;;5026768;28;20859;-68
2023/03/27 06:28:06;;;;;;;11.87;6.07;;;;;;;;;;5031008;28;20481;-68
2023/03/27 06:30:42;;;;;;;10.20;6.37;;;;;;;;;;5031493;28;20444;-68
2023/03/27 06:33:29;;;;;;;10.37;6.23;;;;;;;;;;5046525;28;20452;-67
2023/03/27 06:36:00;;;;;;;7.70;5.23;;;;;;;;;;5031201;28;20463;-68
2023/03/27 06:38:30;;;;;;;7.87;5.23;;;;;;;;;;5016400;28;20451;-69
2023/03/27 06:40:59;;;;;;;5.80;3.83;;;;;;;;;;5051120;28;20851;-68
2023/03/27 06:43:46;;;;;;;8.93;5.70;;;;;;;;;;5060929;28;21139;-66
2023/03/27 06:46:27;;;;;;;6.70;4.20;;;;;;;;;;5029672;28;20445;-66
2023/03/27 06:49:36;;;;;;;3.30;2.17;;;;;;;;;;5043386;28;20443;-68
2023/03/27 06:52:10;;;;;;;2.20;1.50;;;;;;;;;;5015221;28;20525;-68
2023/03/27 06:54:37;;;;;;;2.00;1.23;;;;;;;;;;5031142;28;20954;-68
2023/03/27 06:57:05;;;;;;;2.90;1.77;;;;;;;;;;5014931;28;20832;-67
2023/03/27 06:59:47;;;;;;;1.70;1.33;;;;;;;;;;5053683;28;20942;-68
2023/03/27 07:02:19;;;;;;;2.00;1.60;;;;;;;;;;5032836;28;21149;-68
2023/03/27 07:05:06;;;;;;;1.83;1.27;;;;;;;;;;5068614;28;20780;-68
2023/03/27 07:07:36;;;;;;;3.13;2.30;;;;;;;;;;5032086;28;20584;-67
2023/03/27 07:10:08;;;;;;;1.90;1.40;;;;;;;;;;5030061;28;21018;-66
2023/03/27 07:12:35;;;;;;;1.93;1.10;;;;;;;;;;5028839;28;20495;-68
2023/03/27 07:15:05;;;;;;;2.50;1.00;;;;;;;;;;5027426;28;20536;-68
2023/03/27 07:17:32;;;;;;;2.40;1.30;;;;;;;;;;5027558;28;20461;-65
2023/03/27 07:20:13;;;;;;;1.50;0.97;;;;;;;;;;5063399;28;20440;-65
2023/03/27 07:22:43;;;;;;;1.90;1.53;;;;;;;;;;5031836;28;20449;-69
2023/03/27 07:25:35;;;;;;;2.83;1.63;;;;;;;;;;5030655;28;20451;-69
2023/03/27 07:28:11;;;;;;;2.80;1.83;;;;;;;;;;5030341;28;21239;-68
2023/03/27 07:30:38;;;;;;;2.97;1.33;;;;;;;;;;5037651;28;20994;-69
2023/03/27 07:33:06;;;;;;;2.87;1.30;;;;;;;;;;5028949;28;20541;-68
2023/03/27 07:35:33;;;;;;;2.30;1.30;;;;;;;;;;5030176;28;20531;-68
2023/03/27 07:38:26;;;;;;;2.10;1.60;;;;;;;;;;5009672;28;20434;-68
2023/03/27 07:41:14;;;;;;;4.20;1.90;;;;;;;;;;5040850;28;20448;-69
2023/03/27 07:43:51;;;;;;;2.30;1.67;;;;;;;;;;5046728;28;20492;-68
2023/03/27 07:46:21;;;;;;;5.17;2.50;;;;;;;;;;5032444;28;20444;-67
2023/03/27 07:48:49;;;;;;;2.50;2.00;;;;;;;;;;5032094;28;20570;-67
2023/03/27 07:51:19;;;;;;;3.30;2.10;;;;;;;;;;5031036;28;20948;-67
2023/03/27 07:53:52;;;;;;;1.97;1.40;;;;;;;;;;5030493;28;20441;-68
2023/03/27 07:56:23;;;;;;;2.80;1.30;;;;;;;;;;5031616;28;20437;-67
2023/03/27 07:59:10;;;;;;;3.30;1.50;;;;;;;;;;5017946;28;20495;-68
2023/03/27 08:01:40;;;;;;;2.37;1.70;;;;;;;;;;5031817;28;20497;-67
2023/03/27 08:04:07;;;;;;;2.13;1.73;;;;;;;;;;5048553;28;21238;-68
2023/03/27 08:06:36;;;;;;;2.80;1.73;;;;;;;;;;5031842;28;20958;-67
2023/03/27 08:09:07;;;;;;;1.93;1.20;;;;;;;;;;5031770;28;21448;-67
2023/03/27 08:11:36;;;;;;;2.57;1.30;;;;;;;;;;5031532;28;20514;-67
2023/03/27 08:14:04;;;;;;;2.47;1.00;;;;;;;;;;5049522;28;20436;-68
2023/03/27 08:16:32;;;;;;;1.43;0.90;;;;;;;;;;5031350;28;20473;-67
2023/03/27 08:19:00;;;;;;;1.43;0.90;;;;;;;;;;5049702;28;20495;-67
2023/03/27 08:21:32;;;;;;;2.17;1.50;;;;;;;;;;5016491;28;20457;-67
2023/03/27 08:24:00;;;;;;;4.17;2.47;;;;;;;;;;5029773;28;20462;-67
2023/03/27 08:26:32;;;;;;;1.83;1.03;;;;;;;;;;5029278;28;20557;-67
2023/03/27 08:29:03;;;;;;;3.00;1.70;;;;;;;;;;5027703;28;21222;-67
2023/03/27 08:31:33;;;;;;;3.57;1.83;;;;;;;;;;5011723;28;20485;-68
2023/03/27 08:34:02;;;;;;;1.43;1.17;;;;;;;;;;5011774;28;20530;-67
2023/03/27 08:36:42;;;;;;;2.60;1.10;;;;;;;;;;5030411;28;20509;-67
2023/03/27 08:39:10;;;;;;;1.73;1.40;;;;;;;;;;5031406;28;20449;-67
2023/03/27 08:41:51;;;;;;;1.53;0.87;;;;;;;;;;5031430;28;20520;-67
2023/03/27 08:44:25;;;;;;;2.50;1.17;;;;;;;;;;5030691;28;20468;-67
2023/03/27 08:47:02;;;;;;;2.07;1.20;;;;;;;;;;5048692;28;20437;-67
2023/03/27 08:49:33;;;;;;;3.20;1.30;;;;;;;;;;5030828;28;20513;-67
2023/03/27 08:52:20;;;;;;;3.80;1.10;;;;;;;;;;5034258;28;20579;-67
2023/03/27 08:54:52;;;;;;;3.13;1.63;;;;;;;;;;5010288;28;20442;-67
2023/03/27 08:57:30;;;;;;;3.77;1.37;;;;;;;;;;5010642;28;20456;-67
2023/03/27 09:00:08;;;;;;;4.53;3.33;;;;;;;;;;5011335;28;20437;-67
2023/03/27 09:02:43;;;;;;;2.50;1.70;;;;;;;;;;5010967;28;20442;-67
2023/03/27 09:05:15;;;;;;;4.07;1.50;;;;;;;;;;5010889;28;20477;-67
2023/03/27 09:07:55;;;;;;;2.30;1.13;;;;;;;;;;5010685;28;20512;-67
2023/03/27 09:10:31;;;;;;;4.40;1.20;;;;;;;;;;5010091;28;20514;-67
2023/03/27 09:13:03;;;;;;;3.43;1.30;;;;;;;;;;5027206;28;20447;-66
2023/03/27 09:15:33;;;;;;;1.93;1.20;;;;;;;;;;5027237;28;20821;-66
2023/03/27 09:18:02;;;;;;;1.87;1.03;;;;;;;;;;5011188;28;20433;-67
2023/03/27 09:20:31;;;;;;;1.77;1.10;;;;;;;;;;5027207;28;20442;-67
2023/03/27 09:23:02;;;;;;;1.90;1.13;;;;;;;;;;5028262;28;20434;-66
2023/03/27 09:26:05;;;;;;;2.30;0.90;;;;;;;;;;5014214;28;20536;-67
2023/03/27 09:29:01;;;;;;;2.13;1.67;;;;;;;;;;5027961;28;20583;-66
2023/03/27 09:31:44;;;;;;;1.50;1.00;;;;;;;;;;5010896;28;20825;-66
2023/03/27 09:34:25;;;;;;;1.03;0.80;;;;;;;;;;5010457;28;20449;-67
2023/03/27 09:36:53;;;;;;;2.10;1.00;;;;;;;;;;5010669;28;20446;-67
2023/03/27 09:39:22;;;;;;;2.50;1.20;;;;;;;;;;5014121;28;20436;-66
2023/03/27 09:42:02;;;;;;;1.53;1.10;;;;;;;;;;5015437;28;20449;-67
2023/03/27 09:44:37;;;;;;;1.03;0.83;;;;;;;;;;5011137;28;20489;-67
2023/03/27 09:47:14;;;;;;;1.73;1.00;;;;;;;;;;5010282;28;20199;-67
2023/03/27 09:49:46;;;;;;;1.23;0.80;;;;;;;;;;5010238;28;20219;-67
2023/03/27 09:52:34;;;;;;;1.53;1.10;;;;;;;;;;5015862;28;20292;-67
2023/03/27 09:55:33;;;;;;;1.93;1.03;;;;;;;;;;5018040;28;20717;-67
2023/03/27 09:58:27;;;;;;;1.80;0.90;;;;;;;;;;5014526;28;21258;-67
2023/03/27 10:01:12;;;;;;;3.07;2.47;;;;;;;;;;5032226;28;20444;-67
2023/03/27 10:03:47;;;;;;;1.10;1.00;;;;;;;;;;5034096;28;20187;-67
2023/03/27 10:06:26;;;;;;;0.73;0.60;;;;;;;;;;5034553;28;20573;-67
2023/03/27 10:09:05;;;;;;;0.87;0.70;;;;;;;;;;5034002;28;20477;-67
2023/03/27 10:11:38;;;;;;;1.33;0.83;;;;;;;;;;5019188;28;20445;-67
2023/03/27 10:14:15;;;;;;;3.03;0.80;;;;;;;;;;5018065;28;20511;-67
2023/03/27 10:16:42;;;;;;;1.70;1.00;;;;;;;;;;5013926;28;21007;-67
2023/03/27 10:19:18;;;;;;;2.50;0.87;;;;;;;;;;5031922;28;20426;-67
2023/03/27 10:21:48;;;;;;;0.90;0.60;;;;;;;;;;5014405;28;20229;-67
2023/03/27 10:24:34;;;;;;;2.20;0.77;;;;;;;;;;5031057;28;20312;-67
2023/03/27 10:27:30;;;;;;;1.30;0.70;;;;;;;;;;5030275;28;20196;-66
2023/03/27 10:30:26;;;;;;;1.57;0.80;;;;;;;;;;4994627;28;20450;-66
2023/03/27 10:32:59;;;;;;;1.27;0.80;;;;;;;;;;5030049;28;20449;-67
2023/03/27 10:35:46;;;;;;;1.67;0.70;;;;;;;;;;5033559;28;20460;-67
2023/03/27 10:38:27;;;;;;;1.83;1.10;;;;;;;;;;5033043;28;20448;-67
2023/03/27 10:41:00;;;;;;;1.43;0.80;;;;;;;;;;5034702;28;20435;-66
2023/03/27 10:43:36;;;;;;;3.97;1.23;;;;;;;;;;5017951;28;20485;-66
2023/03/27 10:46:03;;;;;;;2.07;1.20;;;;;;;;;;5017099;28;20445;-66
2023/03/27 10:48:47;;;;;;;2.87;1.30;;;;;;;;;;5033270;28;20530;-66
2023/03/27 10:51:23;;;;;;;1.33;0.90;;;;;;;;;;5029785;28;20460;-66
2023/03/27 10:54:11;;;;;;;2.90;1.60;;;;;;;;;;5030197;28;20457;-67
2023/03/27 10:56:52;;;;;;;1.20;0.80;;;;;;;;;;5030973;28;20483;-66
2023/03/27 10:59:21;;;;;;;1.67;1.10;;;;;;;;;;5013379;28;20454;-65
2023/03/27 11:02:15;;;;;;;2.97;0.80;;;;;;;;;;5029694;28;21030;-66
2023/03/27 11:04:45;;;;;;;1.53;1.00;;;;;;;;;;5029147;28;20478;-65
2023/03/27 11:07:23;;;;;;;1.83;0.83;;;;;;;;;;5029484;28;20449;-66
2023/03/27 11:09:52;;;;;;;3.13;1.40;;;;;;;;;;5013300;28;20473;-66
2023/03/27 11:12:19;;;;;;;2.10;1.27;;;;;;;;;;5029638;28;20806;-66
2023/03/27 11:14:54;;;;;;;2.90;1.37;;;;;;;;;;5014007;28;21020;-66
2023/03/27 11:17:25;;;;;;;1.20;0.73;;;;;;;;;;5029069;28;20493;-66
2023/03/27 11:20:26;;;;;;;1.70;0.77;;;;;;;;;;5025621;28;20449;-67
2023/03/27 11:23:28;;;;;;;4.00;1.40;;;;;;;;;;5008228;28;20454;-66
2023/03/27 11:26:26;;;;;;;2.57;1.40;;;;;;;;;;5021851;28;20446;-66
2023/03/27 11:29:08;;;;;;;1.53;0.80;;;;;;;;;;4996566;28;21001;-65
2023/03/27 11:31:48;;;;;;;1.17;0.70;;;;;;;;;;5014670;28;20491;-66
2023/03/27 11:34:39;;;;;;;1.60;0.73;;;;;;;;;;5015581;28;20502;-66
2023/03/27 11:37:34;;;;;;;2.70;0.90;;;;;;;;;;5029052;28;20442;-65
2023/03/27 11:40:03;;;;;;;5.17;1.53;;;;;;;;;;5031342;28;20452;-65
2023/03/27 11:42:31;;;;;;;1.70;0.70;;;;;;;;;;5050133;28;20445;-66
2023/03/27 11:45:03;;;;;;;1.30;0.63;;;;;;;;;;5032996;28;20432;-66
2023/03/27 11:47:48;;;;;;;1.73;1.10;;;;;;;;;;5032229;28;20859;-66
2023/03/27 11:50:22;;;;;;;1.60;1.27;;;;;;;;;;5032100;28;20487;-66
2023/03/27 11:52:50;;;;;;;1.80;1.40;;;;;;;;;;5031881;28;20536;-67
2023/03/27 11:55:48;;;;;;;1.70;1.10;;;;;;;;;;5027977;28;20900;-66
2023/03/27 11:58:20;;;;;;;1.90;1.10;;;;;;;;;;5012258;28;20504;-66
2023/03/27 12:01:00;;;;;;;1.87;1.23;;;;;;;;;;5012120;28;20434;-66
2023/03/27 12:03:42;;;;;;;5.97;1.53;;;;;;;;;;5012023;28;20957;-66
2023/03/27 12:06:16;;;;;;;1.23;0.57;;;;;;;;;;5012439;28;20453;-66
2023/03/27 12:08:52;;;;;;;1.37;0.67;;;;;;;;;;5029819;28;20462;-66
2023/03/27 12:11:20;;;;;;;2.60;1.03;;;;;;;;;;5024530;28;20456;-66
2023/03/27 12:13:53;;;;;;;0.90;0.70;;;;;;;;;;5028258;28;20849;-66
2023/03/27 12:16:41;;;;;;;1.53;0.80;;;;;;;;;;5013866;28;20456;-66
2023/03/27 12:19:18;;;;;;;1.40;0.70;;;;;;;;;;5027976;28;20987;-66
2023/03/27 12:22:27;;;;;;;3.30;0.70;;;;;;;;;;5027529;28;20473;-65
2023/03/27 12:25:06;;;;;;;3.43;0.63;;;;;;;;;;5028008;28;20451;-66
2023/03/27 12:28:00;;;;;;;1.13;0.67;;;;;;;;;;5012842;28;20538;-66
2023/03/27 12:30:43;;;;;;;1.13;0.67;;;;;;;;;;5011735;28;20488;-65
2023/03/27 12:33:12;;;;;;;1.37;0.90;;;;;;;;;;5044099;28;20445;-66
2023/03/27 12:35:41;;;;;;;2.30;1.10;;;;;;;;;;5033770;28;20437;-66
2023/03/27 12:38:16;;;;;;;1.53;1.00;;;;;;;;;;5034776;28;20461;-66
2023/03/27 12:41:04;;;;;;;1.97;0.80;;;;;;;;;;5034261;28;20523;-65
2023/03/27 12:43:55;;;;;;;1.27;0.70;;;;;;;;;;5039274;28;21382;-65
2023/03/27 12:46:32;;;;;;;0.73;0.60;;;;;;;;;;5035167;28;20563;-65
2023/03/27 12:49:00;;;;;;;1.60;0.97;;;;;;;;;;5034136;28;20485;-65
2023/03/27 12:51:34;;;;;;;2.20;0.60;;;;;;;;;;5034413;28;20859;-65
2023/03/27 12:54:10;;;;;;;2.03;0.90;;;;;;;;;;5034220;28;20538;-65
2023/03/27 12:56:37;;;;;;;1.77;0.80;;;;;;;;;;5033456;28;20935;-66
2023/03/27 12:59:18;;;;;;;9.97;4.27;;;;;;;;;;5033197;28;20449;-65
2023/03/27 13:01:49;;;;;;;2.07;0.80;;;;;;;;;;5017896;28;20441;-65
2023/03/27 13:04:25;;;;;;;2.57;1.20;;;;;;;;;;5014601;28;20436;-66
2023/03/27 13:07:09;;;;;;;1.90;0.80;;;;;;;;;;5026371;28;20462;-66
2023/03/27 13:10:14;;;;;;;2.10;1.20;;;;;;;;;;5038353;28;20487;-65
2023/03/27 13:12:54;;;;;;;2.00;0.90;;;;;;;;;;5014260;28;20548;-65
2023/03/27 13:15:47;;;;;;;1.10;1.00;;;;;;;;;;5026722;28;21226;-66
2023/03/27 13:18:41;;;;;;;1.93;1.03;;;;;;;;;;5036610;28;21027;-66
2023/03/27 13:21:08;;;;;;;2.53;1.10;;;;;;;;;;5048883;28;20437;-67
2023/03/27 13:23:45;;;;;;;1.27;0.67;;;;;;;;;;5033261;28;20541;-66
2023/03/27 13:26:19;;;;;;;2.13;0.80;;;;;;;;;;5033433;28;20445;-66
2023/03/27 13:28:47;;;;;;;1.40;1.10;;;;;;;;;;5033724;28;20456;-66
2023/03/27 13:31:34;;;;;;;0.90;0.60;;;;;;;;;;5032658;28;20452;-66
2023/03/27 13:34:27;;;;;;;0.60;0.50;;;;;;;;;;5046000;28;20340;-66
2023/03/27 13:37:08;;;;;;;1.37;0.60;;;;;;;;;;5033946;28;20585;-66
2023/03/27 13:39:40;;;;;;;3.07;0.50;;;;;;;;;;5033166;28;20796;-65
2023/03/27 13:42:08;;;;;;;1.43;0.60;;;;;;;;;;5033481;28;20451;-65
2023/03/27 13:44:45;;;;;;;0.50;0.40;;;;;;;;;;5015868;28;20450;-66
2023/03/27 13:47:21;;;;;;;0.57;0.50;;;;;;;;;;5031516;28;20884;-66
2023/03/27 13:50:07;;;;;;;0.43;0.23;;;;;;;;;;5016449;28;20616;-66
2023/03/27 13:52:59;;;;;;;6.40;2.50;;;;;;;;;;5033238;28;20527;-66
2023/03/27 13:55:49;;;;;;;6.47;3.13;;;;;;;;;;5038589;28;20213;-65
2023/03/27 13:58:41;;;;;;;3.50;1.70;;;;;;;;;;5036380;28;20994;-66
2023/03/27 14:01:29;;;;;;;3.63;1.73;;;;;;;;;;5050511;28;20433;-65
2023/03/27 14:04:15;;;;;;;2.73;1.67;;;;;;;;;;5042747;28;20437;-65
2023/03/27 14:07:01;;;;;;;1.60;0.90;;;;;;;;;;5030716;28;20442;-66
2023/03/27 14:09:38;;;;;;;2.10;0.70;;;;;;;;;;5050808;28;20844;-66
2023/03/27 14:12:17;;;;;;;2.43;0.80;;;;;;;;;;5035825;28;20862;-66
2023/03/27 14:15:24;;;;;;;1.27;0.57;;;;;;;;;;5035133;28;20437;-66
2023/03/27 14:18:19;;;;;;;2.60;1.30;;;;;;;;;;5040150;28;20441;-66
2023/03/27 14:20:49;;;;;;;1.77;0.90;;;;;;;;;;5012800;28;20449;-66
2023/03/27 14:23:15;;;;;;;1.77;0.63;;;;;;;;;;5024677;28;20528;-66
2023/03/27 14:26:00;;;;;;;2.00;0.70;;;;;;;;;;5032403;28;20441;-66
2023/03/27 14:28:32;;;;;;;1.23;0.60;;;;;;;;;;5013740;28;20445;-65
2023/03/27 14:31:04;;;;;;;0.90;0.50;;;;;;;;;;5033329;28;20625;-65
2023/03/27 14:34:00;;;;;;;1.47;0.40;;;;;;;;;;5037720;28;20481;-65
2023/03/27 14:36:29;;;;;;;1.00;0.57;;;;;;;;;;5032411;28;21014;-65
2023/03/27 14:39:14;;;;;;;0.67;0.60;;;;;;;;;;5030907;28;20437;-65
2023/03/27 14:41:46;;;;;;;1.50;0.70;;;;;;;;;;5026824;28;20501;-65
2023/03/27 14:44:14;;;;;;;2.73;0.63;;;;;;;;;;5036633;28;20504;-65
2023/03/27 14:46:43;;;;;;;1.70;0.90;;;;;;;;;;5028842;28;20426;-65
2023/03/27 14:49:11;;;;;;;1.27;0.77;;;;;;;;;;5006660;28;20484;-65
2023/03/27 14:51:40;;;;;;;1.30;0.60;;;;;;;;;;5033350;28;20531;-65
2023/03/27 14:54:28;;;;;;;3.93;1.07;;;;;;;;;;5035838;28;20452;-64
2023/03/27 14:57:03;;;;;;;2.67;1.63;;;;;;;;;;5055656;28;20429;-64
2023/03/27 14:59:33;;;;;;;3.77;1.30;;;;;;;;;;5019926;28;20434;-65
2023/03/27 15:02:16;;;;;;;2.90;1.50;;;;;;;;;;5035222;28;20443;-65
2023/03/27 15:04:44;;;;;;;4.07;1.80;;;;;;;;;;5021345;28;20455;-65
2023/03/27 15:07:14;;;;;;;4.60;1.90;;;;;;;;;;5019589;28;20473;-65
2023/03/27 15:10:05;;;;;;;3.47;1.80;;;;;;;;;;5042484;28;20480;-65
2023/03/27 15:12:56;;;;;;;3.23;2.00;;;;;;;;;;5034301;28;20789;-65
2023/03/27 15:15:41;;;;;;;3.13;1.63;;;;;;;;;;5053571;28;20495;-66
2023/03/27 15:18:14;;;;;;;4.30;1.40;;;;;;;;;;5035689;28;20504;-65
2023/03/27 15:20:41;;;;;;;3.23;2.07;;;;;;;;;;5053808;28;20433;-65
2023/03/27 15:23:12;;;;;;;2.60;0.90;;;;;;;;;;5019531;28;20433;-65
2023/03/27 15:25:41;;;;;;;1.33;0.80;;;;;;;;;;5034544;28;20488;-65
2023/03/27 15:28:11;;;;;;;2.07;1.13;;;;;;;;;;5053031;28;20433;-65
2023/03/27 15:30:46;;;;;;;4.23;1.83;;;;;;;;;;5052929;28;20644;-64
2023/03/27 15:33:36;;;;;;;8.97;2.70;;;;;;;;;;5034595;28;20842;-65
2023/03/27 15:36:04;;;;;;;1.87;1.20;;;;;;;;;;5040501;28;20471;-64
2023/03/27 15:38:32;;;;;;;2.47;1.37;;;;;;;;;;5049898;28;20433;-65
2023/03/27 15:41:00;;;;;;;2.60;1.73;;;;;;;;;;5032584;28;20460;-65
2023/03/27 15:43:27;;;;;;;1.40;1.10;;;;;;;;;;5029335;28;20484;-65
2023/03/27 15:46:10;;;;;;;1.60;1.00;;;;;;;;;;5030166;28;20926;-65
2023/03/27 15:48:39;;;;;;;2.63;1.00;;;;;;;;;;5029925;28;20945;-65
2023/03/27 15:51:07;;;;;;;2.20;0.90;;;;;;;;;;5030283;28;20468;-65
2023/03/27 15:54:03;;;;;;;2.23;0.93;;;;;;;;;;5014000;28;21011;-66
2023/03/27 15:56:35;;;;;;;2.87;0.80;;;;;;;;;;5012611;28;20868;-65
2023/03/27 15:59:05;;;;;;;1.57;0.73;;;;;;;;;;5038466;28;20464;-65
2023/03/27 16:01:34;;;;;;;1.27;0.70;;;;;;;;;;5036721;28;20452;-65
2023/03/27 16:04:07;;;;;;;2.77;0.80;;;;;;;;;;5027989;28;20972;-66
2023/03/27 16:06:36;;;;;;;2.27;0.90;;;;;;;;;;5047544;28;20452;-66
2023/03/27 16:09:04;;;;;;;3.87;2.07;;;;;;;;;;5035264;28;20508;-65